sensor_id;sensor_type;location;lat;lon;timestamp;temperature;humidity
73277;DHT22;61501;43.316;5.372;2023-05-07T00:00:17;18.30;99.90
73277;DHT22;61501;43.316;5.372;2023-05-07T00:02:44;18.30;99.90
73277;DHT22;61501;43.316;5.372;2023-05-07T00:05:10;18.30;99.90
73277;DHT22;61501;43.316;5.372;2023-05-07T00:07:36;18.30;99.90
73277;DHT22;61501;43.316;5.372;2023-05-07T00:10:03;18.20;98.30
73277;DHT22;61501;43.316;5.372;2023-05-07T00:12:29;18.10;97.90
73277;DHT22;61501;43.316;5.372;2023-05-07T00:14:57;18.10;97.00
73277;DHT22;61501;43.316;5.372;2023-05-07T00:17:22;18.00;95.80
73277;DHT22;61501;43.316;5.372;2023-05-07T00:19:48;17.90;95.30
73277;DHT22;61501;43.316;5.372;2023-05-07T00:22:14;17.90;94.70
73277;DHT22;61501;43.316;5.372;2023-05-07T00:24:40;18.00;94.40
73277;DHT22;61501;43.316;5.372;2023-05-07T00:27:05;17.90;92.80
73277;DHT22;61501;43.316;5.372;2023-05-07T00:29:31;17.90;92.20
73277;DHT22;61501;43.316;5.372;2023-05-07T00:31:56;17.90;93.00
73277;DHT22;61501;43.316;5.372;2023-05-07T00:34:22;17.90;90.80
73277;DHT22;61501;43.316;5.372;2023-05-07T00:36:48;17.90;90.20
73277;DHT22;61501;43.316;5.372;2023-05-07T00:39:13;17.90;90.80
73277;DHT22;61501;43.316;5.372;2023-05-07T00:41:39;17.90;91.00
73277;DHT22;61501;43.316;5.372;2023-05-07T00:44:06;18.00;92.50
73277;DHT22;61501;43.316;5.372;2023-05-07T00:46:32;18.00;91.50
73277;DHT22;61501;43.316;5.372;2023-05-07T00:48:59;18.00;90.90
73277;DHT22;61501;43.316;5.372;2023-05-07T00:51:25;18.00;91.60
73277;DHT22;61501;43.316;5.372;2023-05-07T00:53:53;18.00;90.60
73277;DHT22;61501;43.316;5.372;2023-05-07T00:56:20;18.00;90.40
73277;DHT22;61501;43.316;5.372;2023-05-07T00:58:46;18.00;90.40
73277;DHT22;61501;43.316;5.372;2023-05-07T01:01:11;17.90;90.70
73277;DHT22;61501;43.316;5.372;2023-05-07T01:03:37;17.90;92.00
73277;DHT22;61501;43.316;5.372;2023-05-07T01:06:03;18.00;91.90
73277;DHT22;61501;43.316;5.372;2023-05-07T01:08:31;18.00;91.70
73277;DHT22;61501;43.316;5.372;2023-05-07T01:10:57;18.00;91.90
73277;DHT22;61501;43.316;5.372;2023-05-07T01:13:23;18.00;92.40
73277;DHT22;61501;43.316;5.372;2023-05-07T01:15:50;18.00;92.90
73277;DHT22;61501;43.316;5.372;2023-05-07T01:18:15;17.90;94.00
73277;DHT22;61501;43.316;5.372;2023-05-07T01:20:42;17.90;95.20
73277;DHT22;61501;43.316;5.372;2023-05-07T01:23:08;17.90;96.00
73277;DHT22;61501;43.316;5.372;2023-05-07T01:25:34;17.90;97.10
73277;DHT22;61501;43.316;5.372;2023-05-07T01:28:00;17.80;97.90
73277;DHT22;61501;43.316;5.372;2023-05-07T01:30:27;17.80;96.80
73277;DHT22;61501;43.316;5.372;2023-05-07T01:33:04;17.70;95.10
73277;DHT22;61501;43.316;5.372;2023-05-07T01:35:36;17.70;96.80
73277;DHT22;61501;43.316;5.372;2023-05-07T01:38:03;17.70;96.90
73277;DHT22;61501;43.316;5.372;2023-05-07T01:40:30;17.70;95.50
73277;DHT22;61501;43.316;5.372;2023-05-07T01:42:55;17.70;96.80
73277;DHT22;61501;43.316;5.372;2023-05-07T01:45:22;17.70;97.20
73277;DHT22;61501;43.316;5.372;2023-05-07T01:47:48;17.70;96.50
73277;DHT22;61501;43.316;5.372;2023-05-07T01:50:17;17.70;96.90
73277;DHT22;61501;43.316;5.372;2023-05-07T01:52:43;17.70;96.90
73277;DHT22;61501;43.316;5.372;2023-05-07T01:55:09;17.70;96.90
73277;DHT22;61501;43.316;5.372;2023-05-07T01:57:35;17.70;95.90
73277;DHT22;61501;43.316;5.372;2023-05-07T02:00:01;17.70;96.80
73277;DHT22;61501;43.316;5.372;2023-05-07T02:02:30;17.60;96.20
73277;DHT22;61501;43.316;5.372;2023-05-07T02:04:56;17.60;95.70
73277;DHT22;61501;43.316;5.372;2023-05-07T02:07:21;17.60;95.60
73277;DHT22;61501;43.316;5.372;2023-05-07T02:09:47;17.60;96.20
73277;DHT22;61501;43.316;5.372;2023-05-07T02:12:13;17.60;95.90
73277;DHT22;61501;43.316;5.372;2023-05-07T02:14:38;17.60;95.40
73277;DHT22;61501;43.316;5.372;2023-05-07T02:17:04;17.50;94.40
73277;DHT22;61501;43.316;5.372;2023-05-07T02:19:29;17.50;94.10
73277;DHT22;61501;43.316;5.372;2023-05-07T02:21:55;17.50;93.80
73277;DHT22;61501;43.316;5.372;2023-05-07T02:24:21;17.40;94.80
73277;DHT22;61501;43.316;5.372;2023-05-07T02:26:46;17.50;95.50
73277;DHT22;61501;43.316;5.372;2023-05-07T02:29:12;17.50;95.00
73277;DHT22;61501;43.316;5.372;2023-05-07T02:31:37;17.50;94.70
73277;DHT22;61501;43.316;5.372;2023-05-07T02:34:03;17.50;95.70
73277;DHT22;61501;43.316;5.372;2023-05-07T02:36:29;17.50;96.00
73277;DHT22;61501;43.316;5.372;2023-05-07T02:38:55;17.50;96.50
73277;DHT22;61501;43.316;5.372;2023-05-07T02:41:20;17.40;96.40
73277;DHT22;61501;43.316;5.372;2023-05-07T02:43:46;17.40;96.80
73277;DHT22;61501;43.316;5.372;2023-05-07T02:46:12;17.40;99.30
73277;DHT22;61501;43.316;5.372;2023-05-07T02:48:37;17.40;98.40
73277;DHT22;61501;43.316;5.372;2023-05-07T02:51:04;17.40;98.60
73277;DHT22;61501;43.316;5.372;2023-05-07T02:53:31;17.30;97.40
73277;DHT22;61501;43.316;5.372;2023-05-07T02:55:58;17.40;98.40
73277;DHT22;61501;43.316;5.372;2023-05-07T02:58:24;17.40;98.10
73277;DHT22;61501;43.316;5.372;2023-05-07T03:00:50;17.40;97.10
73277;DHT22;61501;43.316;5.372;2023-05-07T03:03:16;17.50;97.50
73277;DHT22;61501;43.316;5.372;2023-05-07T03:05:42;17.50;98.10
73277;DHT22;61501;43.316;5.372;2023-05-07T03:08:08;17.50;98.60
73277;DHT22;61501;43.316;5.372;2023-05-07T03:10:34;17.50;98.50
73277;DHT22;61501;43.316;5.372;2023-05-07T03:13:00;17.50;97.50
73277;DHT22;61501;43.316;5.372;2023-05-07T03:15:26;17.40;96.60
73277;DHT22;61501;43.316;5.372;2023-05-07T03:17:51;17.40;96.40
73277;DHT22;61501;43.316;5.372;2023-05-07T03:20:17;17.40;96.20
73277;DHT22;61501;43.316;5.372;2023-05-07T03:22:43;17.40;97.90
73277;DHT22;61501;43.316;5.372;2023-05-07T03:25:09;17.50;97.00
73277;DHT22;61501;43.316;5.372;2023-05-07T03:27:34;17.50;96.90
73277;DHT22;61501;43.316;5.372;2023-05-07T03:30:00;17.50;97.70
73277;DHT22;61501;43.316;5.372;2023-05-07T03:32:26;17.50;98.80
73277;DHT22;61501;43.316;5.372;2023-05-07T03:34:52;17.50;97.80
73277;DHT22;61501;43.316;5.372;2023-05-07T03:37:18;17.50;98.20
73277;DHT22;61501;43.316;5.372;2023-05-07T03:39:44;17.40;98.80
73277;DHT22;61501;43.316;5.372;2023-05-07T03:42:09;17.30;99.00
73277;DHT22;61501;43.316;5.372;2023-05-07T03:44:35;17.30;98.90
73277;DHT22;61501;43.316;5.372;2023-05-07T03:47:02;17.20;99.10
73277;DHT22;61501;43.316;5.372;2023-05-07T03:49:28;17.30;99.90
73277;DHT22;61501;43.316;5.372;2023-05-07T03:51:53;17.30;99.30
73277;DHT22;61501;43.316;5.372;2023-05-07T03:54:19;17.30;99.90
73277;DHT22;61501;43.316;5.372;2023-05-07T03:56:45;17.40;99.90
73277;DHT22;61501;43.316;5.372;2023-05-07T03:59:11;17.40;99.90
73277;DHT22;61501;43.316;5.372;2023-05-07T04:01:37;17.30;99.90
73277;DHT22;61501;43.316;5.372;2023-05-07T04:04:02;17.30;99.90
73277;DHT22;61501;43.316;5.372;2023-05-07T04:06:29;17.30;99.90
73277;DHT22;61501;43.316;5.372;2023-05-07T04:08:55;17.20;99.90
73277;DHT22;61501;43.316;5.372;2023-05-07T04:11:21;17.20;99.90
73277;DHT22;61501;43.316;5.372;2023-05-07T04:13:46;17.30;99.90
73277;DHT22;61501;43.316;5.372;2023-05-07T04:16:12;17.30;99.30
73277;DHT22;61501;43.316;5.372;2023-05-07T04:18:38;17.30;99.90
73277;DHT22;61501;43.316;5.372;2023-05-07T04:21:04;17.40;99.90
73277;DHT22;61501;43.316;5.372;2023-05-07T04:23:30;17.40;99.80
73277;DHT22;61501;43.316;5.372;2023-05-07T04:25:56;17.40;97.80
73277;DHT22;61501;43.316;5.372;2023-05-07T04:28:23;17.50;97.90
73277;DHT22;61501;43.316;5.372;2023-05-07T04:30:48;17.50;98.50
73277;DHT22;61501;43.316;5.372;2023-05-07T04:33:14;17.50;98.90
73277;DHT22;61501;43.316;5.372;2023-05-07T04:35:42;17.50;98.40
73277;DHT22;61501;43.316;5.372;2023-05-07T04:38:08;17.60;97.70
73277;DHT22;61501;43.316;5.372;2023-05-07T04:40:35;17.50;98.00
73277;DHT22;61501;43.316;5.372;2023-05-07T04:43:01;17.60;97.50
73277;DHT22;61501;43.316;5.372;2023-05-07T04:45:27;17.60;96.40
73277;DHT22;61501;43.316;5.372;2023-05-07T04:47:52;17.60;97.60
73277;DHT22;61501;43.316;5.372;2023-05-07T04:50:18;17.60;96.40
73277;DHT22;61501;43.316;5.372;2023-05-07T04:52:45;17.60;97.90
73277;DHT22;61501;43.316;5.372;2023-05-07T04:55:11;17.60;97.60
73277;DHT22;61501;43.316;5.372;2023-05-07T04:57:36;17.60;97.80
73277;DHT22;61501;43.316;5.372;2023-05-07T05:00:05;17.50;99.10
73277;DHT22;61501;43.316;5.372;2023-05-07T05:02:31;17.50;98.70
73277;DHT22;61501;43.316;5.372;2023-05-07T05:04:56;17.60;99.60
73277;DHT22;61501;43.316;5.372;2023-05-07T05:07:22;17.60;99.20
73277;DHT22;61501;43.316;5.372;2023-05-07T05:09:48;17.60;99.90
73277;DHT22;61501;43.316;5.372;2023-05-07T05:12:13;17.60;99.90
73277;DHT22;61501;43.316;5.372;2023-05-07T05:14:39;17.70;99.90
73277;DHT22;61501;43.316;5.372;2023-05-07T05:17:04;17.70;99.80
73277;DHT22;61501;43.316;5.372;2023-05-07T05:19:30;17.60;99.90
73277;DHT22;61501;43.316;5.372;2023-05-07T05:21:56;17.50;99.90
73277;DHT22;61501;43.316;5.372;2023-05-07T05:24:21;17.50;99.90
73277;DHT22;61501;43.316;5.372;2023-05-07T05:26:47;17.60;99.90
73277;DHT22;61501;43.316;5.372;2023-05-07T05:29:13;17.70;99.90
73277;DHT22;61501;43.316;5.372;2023-05-07T05:31:38;17.70;99.90
73277;DHT22;61501;43.316;5.372;2023-05-07T05:34:04;17.80;99.90
73277;DHT22;61501;43.316;5.372;2023-05-07T05:36:30;17.70;99.90
73277;DHT22;61501;43.316;5.372;2023-05-07T05:38:56;17.70;99.90
73277;DHT22;61501;43.316;5.372;2023-05-07T05:41:21;17.70;99.90
73277;DHT22;61501;43.316;5.372;2023-05-07T05:43:47;17.70;99.90
73277;DHT22;61501;43.316;5.372;2023-05-07T05:46:12;17.70;99.90
73277;DHT22;61501;43.316;5.372;2023-05-07T05:48:38;17.70;99.90
73277;DHT22;61501;43.316;5.372;2023-05-07T05:51:04;17.80;99.90
73277;DHT22;61501;43.316;5.372;2023-05-07T05:53:29;17.70;99.90
73277;DHT22;61501;43.316;5.372;2023-05-07T05:55:55;17.80;99.90
73277;DHT22;61501;43.316;5.372;2023-05-07T05:58:21;17.80;99.90
73277;DHT22;61501;43.316;5.372;2023-05-07T06:00:46;17.80;99.90
73277;DHT22;61501;43.316;5.372;2023-05-07T06:03:13;17.80;99.90
73277;DHT22;61501;43.316;5.372;2023-05-07T06:05:39;17.80;99.90
73277;DHT22;61501;43.316;5.372;2023-05-07T06:08:05;17.70;99.90
73277;DHT22;61501;43.316;5.372;2023-05-07T06:10:30;17.70;99.90
73277;DHT22;61501;43.316;5.372;2023-05-07T06:12:56;17.70;99.90
73277;DHT22;61501;43.316;5.372;2023-05-07T06:15:22;17.70;99.90
73277;DHT22;61501;43.316;5.372;2023-05-07T06:17:48;17.80;99.90
73277;DHT22;61501;43.316;5.372;2023-05-07T06:20:14;17.90;99.90
73277;DHT22;61501;43.316;5.372;2023-05-07T06:22:40;17.90;99.90
73277;DHT22;61501;43.316;5.372;2023-05-07T06:25:06;17.90;99.90
73277;DHT22;61501;43.316;5.372;2023-05-07T06:27:32;17.80;99.90
73277;DHT22;61501;43.316;5.372;2023-05-07T06:29:57;17.90;99.90
73277;DHT22;61501;43.316;5.372;2023-05-07T06:32:23;18.00;99.90
73277;DHT22;61501;43.316;5.372;2023-05-07T06:34:48;18.00;99.90
73277;DHT22;61501;43.316;5.372;2023-05-07T06:37:14;18.10;99.90
73277;DHT22;61501;43.316;5.372;2023-05-07T06:39:40;18.20;99.90
73277;DHT22;61501;43.316;5.372;2023-05-07T06:42:05;18.30;99.90
73277;DHT22;61501;43.316;5.372;2023-05-07T06:44:31;18.40;99.90
73277;DHT22;61501;43.316;5.372;2023-05-07T06:46:57;18.40;99.90
73277;DHT22;61501;43.316;5.372;2023-05-07T06:49:23;18.30;99.90
73277;DHT22;61501;43.316;5.372;2023-05-07T06:51:48;18.20;99.90
73277;DHT22;61501;43.316;5.372;2023-05-07T06:54:14;18.30;99.90
73277;DHT22;61501;43.316;5.372;2023-05-07T06:56:40;18.40;99.90
73277;DHT22;61501;43.316;5.372;2023-05-07T06:59:06;18.50;99.90
73277;DHT22;61501;43.316;5.372;2023-05-07T07:01:32;18.50;99.90
73277;DHT22;61501;43.316;5.372;2023-05-07T07:03:57;18.60;99.90
73277;DHT22;61501;43.316;5.372;2023-05-07T07:06:23;18.70;99.90
73277;DHT22;61501;43.316;5.372;2023-05-07T07:08:49;18.70;99.90
73277;DHT22;61501;43.316;5.372;2023-05-07T07:11:17;18.80;99.90
73277;DHT22;61501;43.316;5.372;2023-05-07T07:13:43;18.80;99.90
73277;DHT22;61501;43.316;5.372;2023-05-07T07:16:09;18.90;99.90
73277;DHT22;61501;43.316;5.372;2023-05-07T07:18:34;18.90;99.90
73277;DHT22;61501;43.316;5.372;2023-05-07T07:21:01;19.00;99.90
73277;DHT22;61501;43.316;5.372;2023-05-07T07:23:26;19.10;99.90
73277;DHT22;61501;43.316;5.372;2023-05-07T07:25:52;19.20;99.90
73277;DHT22;61501;43.316;5.372;2023-05-07T07:28:21;19.50;99.90
73277;DHT22;61501;43.316;5.372;2023-05-07T07:30:46;19.70;99.90
73277;DHT22;61501;43.316;5.372;2023-05-07T07:33:12;19.80;99.90
73277;DHT22;61501;43.316;5.372;2023-05-07T07:35:38;19.80;99.90
73277;DHT22;61501;43.316;5.372;2023-05-07T07:38:03;19.60;99.90
73277;DHT22;61501;43.316;5.372;2023-05-07T07:40:29;19.60;99.90
73277;DHT22;61501;43.316;5.372;2023-05-07T07:42:56;19.60;99.90
73277;DHT22;61501;43.316;5.372;2023-05-07T07:45:22;19.50;99.90
73277;DHT22;61501;43.316;5.372;2023-05-07T07:47:47;19.50;99.90
73277;DHT22;61501;43.316;5.372;2023-05-07T07:50:13;19.50;99.90
73277;DHT22;61501;43.316;5.372;2023-05-07T07:52:39;19.50;99.90
73277;DHT22;61501;43.316;5.372;2023-05-07T07:55:05;19.30;99.90
73277;DHT22;61501;43.316;5.372;2023-05-07T07:57:31;19.30;99.90
73277;DHT22;61501;43.316;5.372;2023-05-07T07:59:56;19.30;99.90
73277;DHT22;61501;43.316;5.372;2023-05-07T08:02:22;19.40;99.90
73277;DHT22;61501;43.316;5.372;2023-05-07T08:04:48;19.50;99.90
73277;DHT22;61501;43.316;5.372;2023-05-07T08:07:13;19.60;99.90
73277;DHT22;61501;43.316;5.372;2023-05-07T08:09:39;19.60;99.90
73277;DHT22;61501;43.316;5.372;2023-05-07T08:12:06;19.60;99.90
73277;DHT22;61501;43.316;5.372;2023-05-07T08:14:33;19.80;99.90
73277;DHT22;61501;43.316;5.372;2023-05-07T08:16:59;20.00;99.90
73277;DHT22;61501;43.316;5.372;2023-05-07T08:19:24;20.20;99.90
73277;DHT22;61501;43.316;5.372;2023-05-07T08:21:50;20.30;99.90
73277;DHT22;61501;43.316;5.372;2023-05-07T08:24:16;20.50;99.90
73277;DHT22;61501;43.316;5.372;2023-05-07T08:26:43;20.70;99.90
73277;DHT22;61501;43.316;5.372;2023-05-07T08:29:09;20.80;99.90
73277;DHT22;61501;43.316;5.372;2023-05-07T08:31:35;20.90;99.90
73277;DHT22;61501;43.316;5.372;2023-05-07T08:34:00;21.10;99.90
73277;DHT22;61501;43.316;5.372;2023-05-07T08:36:26;21.00;99.90
73277;DHT22;61501;43.316;5.372;2023-05-07T08:38:52;21.30;99.90
73277;DHT22;61501;43.316;5.372;2023-05-07T08:41:18;21.40;99.90
73277;DHT22;61501;43.316;5.372;2023-05-07T08:43:48;21.60;99.90
73277;DHT22;61501;43.316;5.372;2023-05-07T08:46:18;21.60;99.90
73277;DHT22;61501;43.316;5.372;2023-05-07T08:48:45;21.70;99.90
73277;DHT22;61501;43.316;5.372;2023-05-07T08:51:15;21.90;99.90
73277;DHT22;61501;43.316;5.372;2023-05-07T08:53:41;21.90;95.80
73277;DHT22;61501;43.316;5.372;2023-05-07T08:56:08;22.10;95.50
73277;DHT22;61501;43.316;5.372;2023-05-07T08:58:34;22.30;95.90
73277;DHT22;61501;43.316;5.372;2023-05-07T09:01:09;22.60;93.10
73277;DHT22;61501;43.316;5.372;2023-05-07T09:03:37;22.80;90.00
73277;DHT22;61501;43.316;5.372;2023-05-07T09:06:03;22.60;87.30
73277;DHT22;61501;43.316;5.372;2023-05-07T09:08:29;22.50;87.10
73277;DHT22;61501;43.316;5.372;2023-05-07T09:10:55;22.20;84.60
73277;DHT22;61501;43.316;5.372;2023-05-07T09:13:21;21.80;86.10
73277;DHT22;61501;43.316;5.372;2023-05-07T09:15:46;21.30;95.70
73277;DHT22;61501;43.316;5.372;2023-05-07T09:18:12;21.20;98.00
73277;DHT22;61501;43.316;5.372;2023-05-07T09:20:39;21.10;99.30
73277;DHT22;61501;43.316;5.372;2023-05-07T09:23:07;21.00;99.90
73277;DHT22;61501;43.316;5.372;2023-05-07T09:25:33;21.00;99.90
73277;DHT22;61501;43.316;5.372;2023-05-07T09:28:01;21.10;99.90
73277;DHT22;61501;43.316;5.372;2023-05-07T09:30:31;21.10;99.90
73277;DHT22;61501;43.316;5.372;2023-05-07T09:32:58;20.90;99.90
73277;DHT22;61501;43.316;5.372;2023-05-07T09:35:25;20.70;99.90
73277;DHT22;61501;43.316;5.372;2023-05-07T09:37:57;20.50;99.90
73277;DHT22;61501;43.316;5.372;2023-05-07T09:40:28;20.30;99.90
73277;DHT22;61501;43.316;5.372;2023-05-07T09:42:55;20.30;99.90
73277;DHT22;61501;43.316;5.372;2023-05-07T09:45:27;20.70;99.90
73277;DHT22;61501;43.316;5.372;2023-05-07T09:47:57;20.90;99.90
73277;DHT22;61501;43.316;5.372;2023-05-07T09:50:28;20.90;99.90
73277;DHT22;61501;43.316;5.372;2023-05-07T09:52:54;21.10;99.90
73277;DHT22;61501;43.316;5.372;2023-05-07T09:55:21;20.60;99.90
73277;DHT22;61501;43.316;5.372;2023-05-07T09:57:50;20.60;99.90
73277;DHT22;61501;43.316;5.372;2023-05-07T10:00:18;20.30;99.90
73277;DHT22;61501;43.316;5.372;2023-05-07T10:02:46;20.20;99.90
73277;DHT22;61501;43.316;5.372;2023-05-07T10:05:15;20.30;99.90
73277;DHT22;61501;43.316;5.372;2023-05-07T10:07:41;20.20;99.90
73277;DHT22;61501;43.316;5.372;2023-05-07T10:10:07;20.20;99.90
73277;DHT22;61501;43.316;5.372;2023-05-07T10:12:36;20.30;99.90
73277;DHT22;61501;43.316;5.372;2023-05-07T10:15:09;20.00;99.90
73277;DHT22;61501;43.316;5.372;2023-05-07T10:17:39;20.00;99.90
73277;DHT22;61501;43.316;5.372;2023-05-07T10:20:06;19.90;99.90
73277;DHT22;61501;43.316;5.372;2023-05-07T10:22:38;19.70;99.90
73277;DHT22;61501;43.316;5.372;2023-05-07T10:25:08;19.60;99.90
73277;DHT22;61501;43.316;5.372;2023-05-07T10:27:39;19.50;99.90
73277;DHT22;61501;43.316;5.372;2023-05-07T10:32:43;19.30;99.90
73277;DHT22;61501;43.316;5.372;2023-05-07T10:35:21;19.30;99.90
73277;DHT22;61501;43.316;5.372;2023-05-07T10:37:48;19.30;99.90
73277;DHT22;61501;43.316;5.372;2023-05-07T10:40:14;19.10;99.90
73277;DHT22;61501;43.316;5.372;2023-05-07T10:42:53;19.10;99.90
73277;DHT22;61501;43.316;5.372;2023-05-07T10:45:20;19.20;99.90
73277;DHT22;61501;43.316;5.372;2023-05-07T10:48:17;19.30;99.90
73277;DHT22;61501;43.316;5.372;2023-05-07T10:50:44;19.40;99.90
73277;DHT22;61501;43.316;5.372;2023-05-07T10:55:51;19.30;99.90
73277;DHT22;61501;43.316;5.372;2023-05-07T11:00:47;19.50;99.90
73277;DHT22;61501;43.316;5.372;2023-05-07T11:03:13;19.60;99.90
73277;DHT22;61501;43.316;5.372;2023-05-07T11:05:40;19.50;99.90
73277;DHT22;61501;43.316;5.372;2023-05-07T11:08:07;19.40;99.90
73277;DHT22;61501;43.316;5.372;2023-05-07T11:10:59;19.40;99.90
73277;DHT22;61501;43.316;5.372;2023-05-07T11:13:47;19.50;99.90
73277;DHT22;61501;43.316;5.372;2023-05-07T11:16:24;19.60;99.90
73277;DHT22;61501;43.316;5.372;2023-05-07T11:18:52;19.60;99.90
73277;DHT22;61501;43.316;5.372;2023-05-07T11:21:32;19.60;99.90
73277;DHT22;61501;43.316;5.372;2023-05-07T11:23:59;19.70;99.90
73277;DHT22;61501;43.316;5.372;2023-05-07T11:26:25;19.70;99.90
73277;DHT22;61501;43.316;5.372;2023-05-07T11:28:51;19.50;99.90
73277;DHT22;61501;43.316;5.372;2023-05-07T11:31:24;19.60;99.90
73277;DHT22;61501;43.316;5.372;2023-05-07T11:33:51;19.80;99.90
73277;DHT22;61501;43.316;5.372;2023-05-07T11:36:18;19.50;99.90
73277;DHT22;61501;43.316;5.372;2023-05-07T11:38:44;19.40;99.90
73277;DHT22;61501;43.316;5.372;2023-05-07T11:41:10;19.50;99.90
73277;DHT22;61501;43.316;5.372;2023-05-07T11:43:35;19.60;99.90
73277;DHT22;61501;43.316;5.372;2023-05-07T11:46:11;19.60;99.90
73277;DHT22;61501;43.316;5.372;2023-05-07T11:48:38;19.60;99.90
73277;DHT22;61501;43.316;5.372;2023-05-07T11:51:05;19.40;99.90
73277;DHT22;61501;43.316;5.372;2023-05-07T11:53:42;19.60;99.90
73277;DHT22;61501;43.316;5.372;2023-05-07T11:56:15;19.90;99.90
73277;DHT22;61501;43.316;5.372;2023-05-07T11:58:42;20.40;99.90
73277;DHT22;61501;43.316;5.372;2023-05-07T12:01:08;20.90;99.90
73277;DHT22;61501;43.316;5.372;2023-05-07T12:03:35;21.00;99.90
73277;DHT22;61501;43.316;5.372;2023-05-07T12:06:05;21.10;99.90
73277;DHT22;61501;43.316;5.372;2023-05-07T12:08:31;21.50;99.90
73277;DHT22;61501;43.316;5.372;2023-05-07T12:10:57;22.10;99.90
73277;DHT22;61501;43.316;5.372;2023-05-07T12:13:23;22.30;99.90
73277;DHT22;61501;43.316;5.372;2023-05-07T12:15:54;22.80;99.90
73277;DHT22;61501;43.316;5.372;2023-05-07T12:18:21;22.90;99.90
73277;DHT22;61501;43.316;5.372;2023-05-07T12:20:49;23.50;99.90
73277;DHT22;61501;43.316;5.372;2023-05-07T12:23:15;23.40;99.90
73277;DHT22;61501;43.316;5.372;2023-05-07T12:25:43;23.20;99.90
73277;DHT22;61501;43.316;5.372;2023-05-07T12:28:16;23.30;99.90
73277;DHT22;61501;43.316;5.372;2023-05-07T12:30:47;23.30;99.90
73277;DHT22;61501;43.316;5.372;2023-05-07T12:33:17;23.40;99.90
73277;DHT22;61501;43.316;5.372;2023-05-07T12:35:44;23.00;99.90
73277;DHT22;61501;43.316;5.372;2023-05-07T12:38:17;23.20;99.90
73277;DHT22;61501;43.316;5.372;2023-05-07T12:40:43;23.60;99.90
73277;DHT22;61501;43.316;5.372;2023-05-07T12:43:25;23.80;99.90
73277;DHT22;61501;43.316;5.372;2023-05-07T12:45:53;23.80;99.90
73277;DHT22;61501;43.316;5.372;2023-05-07T12:48:20;23.90;99.90
73277;DHT22;61501;43.316;5.372;2023-05-07T12:50:50;24.60;99.90
73277;DHT22;61501;43.316;5.372;2023-05-07T12:53:16;24.90;99.90
73277;DHT22;61501;43.316;5.372;2023-05-07T12:55:44;25.50;88.70
73277;DHT22;61501;43.316;5.372;2023-05-07T12:58:21;24.50;93.70
73277;DHT22;61501;43.316;5.372;2023-05-07T13:00:49;24.00;90.60
73277;DHT22;61501;43.316;5.372;2023-05-07T13:03:36;23.40;97.20
73277;DHT22;61501;43.316;5.372;2023-05-07T13:06:10;23.20;99.90
73277;DHT22;61501;43.316;5.372;2023-05-07T13:08:39;23.50;95.60
73277;DHT22;61501;43.316;5.372;2023-05-07T13:11:09;23.30;99.90
73277;DHT22;61501;43.316;5.372;2023-05-07T13:13:37;23.10;99.90
73277;DHT22;61501;43.316;5.372;2023-05-07T13:16:05;23.90;99.20
73277;DHT22;61501;43.316;5.372;2023-05-07T13:18:32;23.80;97.00
73277;DHT22;61501;43.316;5.372;2023-05-07T13:20:58;24.20;91.60
73277;DHT22;61501;43.316;5.372;2023-05-07T13:23:24;24.10;90.20
73277;DHT22;61501;43.316;5.372;2023-05-07T13:25:50;24.40;90.90
73277;DHT22;61501;43.316;5.372;2023-05-07T13:28:18;24.90;86.50
73277;DHT22;61501;43.316;5.372;2023-05-07T13:30:43;24.40;90.00
73277;DHT22;61501;43.316;5.372;2023-05-07T13:33:09;24.20;91.60
73277;DHT22;61501;43.316;5.372;2023-05-07T13:35:35;24.00;92.60
73277;DHT22;61501;43.316;5.372;2023-05-07T13:38:01;24.60;89.50
73277;DHT22;61501;43.316;5.372;2023-05-07T13:40:26;24.70;87.60
73277;DHT22;61501;43.316;5.372;2023-05-07T13:42:52;24.10;93.50
73277;DHT22;61501;43.316;5.372;2023-05-07T13:45:18;24.50;93.10
73277;DHT22;61501;43.316;5.372;2023-05-07T13:47:44;24.30;93.90
73277;DHT22;61501;43.316;5.372;2023-05-07T13:50:11;24.10;96.10
73277;DHT22;61501;43.316;5.372;2023-05-07T13:52:45;24.40;96.80
73277;DHT22;61501;43.316;5.372;2023-05-07T13:55:19;24.80;95.70
73277;DHT22;61501;43.316;5.372;2023-05-07T13:57:46;25.00;96.70
73277;DHT22;61501;43.316;5.372;2023-05-07T14:00:13;25.50;95.70
73277;DHT22;61501;43.316;5.372;2023-05-07T14:02:38;25.60;95.40
73277;DHT22;61501;43.316;5.372;2023-05-07T14:05:04;24.70;99.90
73277;DHT22;61501;43.316;5.372;2023-05-07T14:07:30;24.10;99.90
73277;DHT22;61501;43.316;5.372;2023-05-07T14:09:56;24.00;99.90
73277;DHT22;61501;43.316;5.372;2023-05-07T14:12:22;23.70;99.90
73277;DHT22;61501;43.316;5.372;2023-05-07T14:14:48;24.60;99.90
73277;DHT22;61501;43.316;5.372;2023-05-07T14:17:16;24.90;99.90
73277;DHT22;61501;43.316;5.372;2023-05-07T14:19:42;24.20;99.90
73277;DHT22;61501;43.316;5.372;2023-05-07T14:22:08;24.30;99.90
73277;DHT22;61501;43.316;5.372;2023-05-07T14:24:33;23.80;99.90
73277;DHT22;61501;43.316;5.372;2023-05-07T14:26:59;23.90;99.90
73277;DHT22;61501;43.316;5.372;2023-05-07T14:29:25;24.70;99.90
73277;DHT22;61501;43.316;5.372;2023-05-07T14:31:51;25.00;99.90
73277;DHT22;61501;43.316;5.372;2023-05-07T14:34:16;24.80;99.90
73277;DHT22;61501;43.316;5.372;2023-05-07T14:36:42;23.60;99.90
73277;DHT22;61501;43.316;5.372;2023-05-07T14:39:09;23.80;99.90
73277;DHT22;61501;43.316;5.372;2023-05-07T14:41:35;23.10;99.90
73277;DHT22;61501;43.316;5.372;2023-05-07T14:44:00;22.70;99.90
73277;DHT22;61501;43.316;5.372;2023-05-07T14:46:27;23.00;99.90
73277;DHT22;61501;43.316;5.372;2023-05-07T14:48:52;23.40;99.90
73277;DHT22;61501;43.316;5.372;2023-05-07T14:51:18;23.20;99.90
73277;DHT22;61501;43.316;5.372;2023-05-07T14:53:44;23.00;99.90
73277;DHT22;61501;43.316;5.372;2023-05-07T14:56:10;22.40;99.90
73277;DHT22;61501;43.316;5.372;2023-05-07T14:58:36;22.20;99.90
73277;DHT22;61501;43.316;5.372;2023-05-07T15:01:02;22.10;99.90
73277;DHT22;61501;43.316;5.372;2023-05-07T15:03:28;22.00;99.90
73277;DHT22;61501;43.316;5.372;2023-05-07T15:05:54;22.10;99.90
73277;DHT22;61501;43.316;5.372;2023-05-07T15:08:20;22.20;99.90
73277;DHT22;61501;43.316;5.372;2023-05-07T15:10:46;21.90;99.90
73277;DHT22;61501;43.316;5.372;2023-05-07T15:13:12;21.90;99.90
73277;DHT22;61501;43.316;5.372;2023-05-07T15:15:38;21.90;99.90
73277;DHT22;61501;43.316;5.372;2023-05-07T15:18:04;21.80;99.90
73277;DHT22;61501;43.316;5.372;2023-05-07T15:20:30;22.00;99.90
73277;DHT22;61501;43.316;5.372;2023-05-07T15:22:56;22.30;99.90
73277;DHT22;61501;43.316;5.372;2023-05-07T15:25:22;22.00;99.90
73277;DHT22;61501;43.316;5.372;2023-05-07T15:27:48;22.40;99.90
73277;DHT22;61501;43.316;5.372;2023-05-07T15:30:14;22.70;99.90
73277;DHT22;61501;43.316;5.372;2023-05-07T15:32:41;23.00;99.90
73277;DHT22;61501;43.316;5.372;2023-05-07T15:35:07;23.20;99.90